Time;durP1;ratioP1;P1;durP2;ratioP2;P2;SDS_P1;SDS_P2;PMS_P1;PMS_P2;Temp;Humidity;BMP_temperature;BMP_pressure;BME280_temperature;BME280_humidity;BME280_pressure;Samples;Min_cycle;Max_cycle;Signal;HPM_P1;HPM_P2
2022/07/22 00:01:05;;;;;;;7.20;6.50;;;21.40;94.30;;;;;;4937821;29;20119;-70
2022/07/22 00:03:30;;;;;;;8.23;6.53;;;21.40;94.20;;;;;;4936917;29;20031;-69
2022/07/22 00:05:56;;;;;;;7.93;5.70;;;21.40;94.20;;;;;;4939655;29;20031;-69
2022/07/22 00:08:22;;;;;;;8.52;6.00;;;21.40;94.20;;;;;;4937436;28;20629;-70
2022/07/22 00:10:48;;;;;;;6.40;5.80;;;21.30;94.30;;;;;;4935349;29;20031;-70
2022/07/22 00:13:14;;;;;;;6.88;5.53;;;21.30;94.30;;;;;;4934898;28;20131;-70
2022/07/22 00:15:39;;;;;;;7.85;5.68;;;21.30;94.40;;;;;;4936565;29;20785;-69
2022/07/22 00:18:05;;;;;;;7.55;6.00;;;21.30;94.40;;;;;;4932200;28;20404;-70
2022/07/22 00:20:31;;;;;;;8.25;5.82;;;21.30;94.40;;;;;;4933669;29;20688;-69
2022/07/22 00:22:57;;;;;;;9.25;5.95;;;21.30;94.30;;;;;;4940273;28;20506;-70
2022/07/22 00:25:23;;;;;;;7.35;5.47;;;21.30;94.00;;;;;;4939465;29;20962;-69
2022/07/22 00:27:49;;;;;;;8.60;6.22;;;21.20;94.10;;;;;;4937852;29;20035;-70
2022/07/22 00:30:15;;;;;;;8.30;6.10;;;21.30;93.70;;;;;;4938466;28;20172;-70
2022/07/22 00:32:42;;;;;;;7.13;6.13;;;21.30;93.60;;;;;;4936793;28;20028;-70
2022/07/22 00:35:09;;;;;;;7.22;5.70;;;21.20;93.70;;;;;;4937077;28;20039;-70
2022/07/22 00:37:35;;;;;;;9.50;6.03;;;21.20;93.50;;;;;;4934575;29;20129;-69
2022/07/22 00:40:01;;;;;;;8.00;6.15;;;21.10;93.80;;;;;;4934755;28;20519;-69
2022/07/22 00:42:27;;;;;;;7.57;5.90;;;21.10;93.30;;;;;;4940578;29;20122;-71
2022/07/22 00:44:53;;;;;;;6.38;5.68;;;21.10;93.70;;;;;;4941848;28;20031;-70
2022/07/22 00:47:19;;;;;;;6.20;5.18;;;21.10;93.50;;;;;;4944263;29;20452;-70
2022/07/22 00:49:44;;;;;;;6.72;5.05;;;21.00;93.60;;;;;;4942766;28;20031;-70
2022/07/22 00:52:11;;;;;;;12.27;5.55;;;21.00;93.50;;;;;;4941149;29;20035;-70
2022/07/22 00:54:38;;;;;;;5.57;5.03;;;21.00;93.40;;;;;;4937108;29;20047;-70
2022/07/22 00:57:04;;;;;;;7.25;5.00;;;21.00;93.40;;;;;;4933037;29;20035;-70
2022/07/22 00:59:30;;;;;;;7.50;5.63;;;21.00;93.60;;;;;;4940628;28;20110;-69
2022/07/22 01:01:56;;;;;;;9.18;5.65;;;21.10;93.40;;;;;;4943166;29;20019;-70
2022/07/22 01:04:24;;;;;;;6.85;4.97;;;21.10;93.40;;;;;;4941899;29;20090;-70
2022/07/22 01:06:50;;;;;;;6.68;5.47;;;21.00;93.40;;;;;;4939748;29;20043;-70
2022/07/22 01:09:15;;;;;;;6.47;5.55;;;21.00;93.60;;;;;;4938600;28;20066;-70
2022/07/22 01:11:42;;;;;;;6.65;5.30;;;21.00;93.60;;;;;;4935577;29;20617;-70
2022/07/22 01:14:08;;;;;;;6.43;5.25;;;21.00;93.60;;;;;;4935609;29;20697;-70
2022/07/22 01:16:34;;;;;;;8.15;5.88;;;21.00;93.60;;;;;;4936279;29;20039;-70
2022/07/22 01:19:00;;;;;;;6.60;5.90;;;21.00;93.50;;;;;;4939653;28;20027;-70
2022/07/22 01:21:26;;;;;;;6.43;5.72;;;21.00;93.60;;;;;;4957128;28;20230;-70
2022/07/22 01:23:52;;;;;;;7.40;5.57;;;20.90;93.80;;;;;;4943598;29;20415;-70
2022/07/22 01:26:18;;;;;;;5.40;4.75;;;20.90;93.70;;;;;;4940225;28;20024;-70
2022/07/22 01:28:44;;;;;;;7.50;5.55;;;21.00;93.60;;;;;;4937966;28;20070;-70
2022/07/22 01:31:10;;;;;;;6.55;5.25;;;21.00;93.70;;;;;;4939207;28;20036;-70
2022/07/22 01:33:36;;;;;;;7.10;5.20;;;20.90;93.60;;;;;;4937953;28;20023;-70
2022/07/22 01:36:03;;;;;;;7.40;5.72;;;20.90;93.60;;;;;;4944492;29;20035;-70
2022/07/22 01:38:29;;;;;;;6.05;5.32;;;20.90;93.40;;;;;;4955634;28;20059;-70
2022/07/22 01:40:55;;;;;;;7.05;5.68;;;20.90;93.50;;;;;;4944053;28;20055;-70
2022/07/22 01:43:21;;;;;;;6.43;5.20;;;20.90;93.30;;;;;;4940940;29;20035;-70
2022/07/22 01:45:51;;;;;;;6.70;5.78;;;20.90;93.20;;;;;;4934743;29;20038;-69
2022/07/22 01:48:17;;;;;;;6.80;6.00;;;20.90;93.30;;;;;;4940175;28;20092;-69
2022/07/22 01:50:43;;;;;;;7.88;6.13;;;20.90;93.30;;;;;;4936825;28;20039;-70
2022/07/22 01:53:09;;;;;;;6.78;5.82;;;20.90;93.30;;;;;;4933063;29;20035;-70
2022/07/22 01:55:35;;;;;;;6.57;5.88;;;20.90;93.30;;;;;;4943088;28;20082;-70
2022/07/22 01:58:02;;;;;;;6.05;5.43;;;20.90;93.40;;;;;;4943487;29;20027;-69
2022/07/22 02:00:32;;;;;;;7.32;6.55;;;20.80;93.60;;;;;;4937973;28;20027;-69
2022/07/22 02:02:59;;;;;;;7.72;5.82;;;20.80;93.70;;;;;;4939129;29;20036;-70
2022/07/22 02:05:26;;;;;;;8.68;6.53;;;20.80;93.80;;;;;;4942355;29;20133;-69
2022/07/22 02:08:02;;;;;;;9.52;7.88;;;20.80;93.70;;;;;;4936834;29;20035;-69
2022/07/22 02:10:33;;;;;;;8.15;5.75;;;20.70;93.80;;;;;;4935913;28;20035;-69
2022/07/22 02:12:59;;;;;;;8.07;6.97;;;20.70;93.80;;;;;;4932502;29;20636;-70
2022/07/22 02:15:26;;;;;;;7.35;6.22;;;20.70;93.90;;;;;;4941534;29;20035;-70
2022/07/22 02:17:52;;;;;;;7.18;6.47;;;20.60;93.90;;;;;;4942540;28;20034;-69
2022/07/22 02:20:17;;;;;;;7.10;6.35;;;20.60;93.90;;;;;;4941114;28;20031;-70
2022/07/22 02:22:43;;;;;;;9.73;7.53;;;20.60;93.80;;;;;;4938950;28;20546;-70
2022/07/22 02:25:09;;;;;;;8.20;6.75;;;20.50;93.90;;;;;;4934157;28;20123;-69
2022/07/22 02:27:35;;;;;;;7.35;6.43;;;20.50;93.80;;;;;;4937129;28;20105;-69
2022/07/22 02:30:01;;;;;;;8.02;6.68;;;20.50;93.90;;;;;;4935453;28;20063;-69
2022/07/22 02:32:27;;;;;;;7.97;6.45;;;20.50;94.00;;;;;;4934262;28;20039;-70
2022/07/22 02:34:52;;;;;;;8.35;7.45;;;20.50;94.00;;;;;;4941067;29;20109;-70
2022/07/22 02:37:18;;;;;;;7.47;6.47;;;20.40;94.00;;;;;;4938996;29;20050;-70
2022/07/22 02:39:44;;;;;;;7.70;6.93;;;20.40;94.00;;;;;;4938442;29;20026;-69
2022/07/22 02:42:11;;;;;;;9.90;7.13;;;20.40;94.10;;;;;;4939315;29;20130;-69
2022/07/22 02:44:37;;;;;;;8.15;6.82;;;20.40;94.10;;;;;;4935545;29;20035;-70
2022/07/22 02:47:03;;;;;;;6.80;6.13;;;20.40;94.10;;;;;;4940428;29;20812;-70
2022/07/22 02:49:33;;;;;;;6.55;5.80;;;20.30;94.10;;;;;;4941648;28;20281;-69
2022/07/22 02:51:59;;;;;;;8.25;6.95;;;20.30;94.40;;;;;;4933871;29;20632;-69
2022/07/22 02:54:25;;;;;;;8.38;6.70;;;20.30;94.20;;;;;;4940605;29;20035;-69
2022/07/22 02:56:51;;;;;;;8.27;7.10;;;20.30;94.20;;;;;;4936438;29;21003;-70
2022/07/22 02:59:17;;;;;;;7.15;6.45;;;20.30;94.30;;;;;;4937616;28;20043;-69
2022/07/22 03:01:42;;;;;;;9.25;7.63;;;20.30;94.40;;;;;;4934943;29;20023;-69
2022/07/22 03:04:09;;;;;;;7.65;6.85;;;20.30;94.50;;;;;;4936581;29;20036;-70
2022/07/22 03:06:36;;;;;;;7.68;6.88;;;20.30;94.50;;;;;;4932104;29;20043;-70
2022/07/22 03:09:13;;;;;;;7.68;6.72;;;20.20;94.60;;;;;;4931254;29;20824;-70
2022/07/22 03:11:42;;;;;;;8.45;7.07;;;20.30;94.70;;;;;;4940474;29;20104;-70
2022/07/22 03:14:09;;;;;;;9.25;7.90;;;20.20;94.70;;;;;;4940364;29;20031;-71
2022/07/22 03:16:37;;;;;;;11.77;8.75;;;20.30;94.70;;;;;;4941286;29;20035;-70
2022/07/22 03:19:02;;;;;;;11.18;9.00;;;20.30;94.80;;;;;;4938009;28;20042;-70
2022/07/22 03:21:28;;;;;;;11.43;9.15;;;20.30;94.80;;;;;;4936119;29;20027;-70
2022/07/22 03:23:54;;;;;;;11.00;9.23;;;20.40;94.70;;;;;;4935384;29;20716;-70
2022/07/22 03:26:21;;;;;;;14.10;11.00;;;20.40;94.70;;;;;;4939489;28;20031;-70
2022/07/22 03:28:48;;;;;;;12.63;9.27;;;20.40;94.50;;;;;;4941885;28;20027;-69
2022/07/22 03:31:14;;;;;;;13.77;10.18;;;20.40;94.30;;;;;;4940918;28;20031;-70
2022/07/22 03:33:39;;;;;;;12.57;9.30;;;20.40;94.40;;;;;;4940770;28;20027;-70
2022/07/22 03:36:07;;;;;;;15.95;11.18;;;20.40;94.40;;;;;;4939570;29;20086;-69
2022/07/22 03:38:34;;;;;;;15.55;9.30;;;20.40;94.50;;;;;;4937347;29;20031;-70
2022/07/22 03:41:00;;;;;;;10.43;9.23;;;20.40;94.40;;;;;;4950673;28;20637;-70
2022/07/22 03:43:26;;;;;;;11.93;10.00;;;20.40;94.40;;;;;;4939934;29;20031;-70
2022/07/22 03:45:51;;;;;;;10.82;9.73;;;20.40;94.30;;;;;;4939353;29;20050;-70
2022/07/22 03:48:17;;;;;;;10.77;8.93;;;20.40;94.30;;;;;;4941034;29;20120;-70
2022/07/22 03:50:43;;;;;;;11.23;9.38;;;20.30;94.20;;;;;;4955485;28;20035;-70
2022/07/22 03:53:09;;;;;;;12.07;10.32;;;20.30;94.20;;;;;;4939441;29;20035;-70
2022/07/22 03:55:38;;;;;;;13.65;11.27;;;20.40;94.30;;;;;;4938047;28;20922;-70
2022/07/22 03:58:05;;;;;;;17.38;11.65;;;20.30;94.20;;;;;;4939452;29;20055;-70
2022/07/22 04:00:30;;;;;;;18.38;12.85;;;20.30;94.20;;;;;;4937002;28;20027;-70
2022/07/22 04:02:58;;;;;;;16.08;11.00;;;20.30;93.90;;;;;;4938131;29;20039;-70
2022/07/22 04:05:47;;;;;;;15.85;11.30;;;20.30;94.00;;;;;;4930901;29;20050;-70
2022/07/22 04:08:18;;;;;;;12.50;9.63;;;20.30;94.10;;;;;;4940822;29;20562;-70
2022/07/22 04:10:46;;;;;;;18.60;12.85;;;20.20;94.60;;;;;;4941133;28;20055;-70
2022/07/22 04:13:12;;;;;;;12.80;10.80;;;20.30;94.30;;;;;;4952805;28;20130;-70
2022/07/22 04:15:44;;;;;;;14.30;11.13;;;20.30;94.30;;;;;;4937914;29;20034;-70
2022/07/22 04:18:10;;;;;;;12.80;11.50;;;20.30;94.30;;;;;;4937870;29;20027;-70
2022/07/22 04:20:36;;;;;;;14.93;12.30;;;20.40;94.10;;;;;;4942348;28;20030;-70
2022/07/22 04:23:24;;;;;;;14.27;12.27;;;20.40;93.90;;;;;;4935853;28;20516;-70
2022/07/22 04:25:58;;;;;;;17.45;13.73;;;20.50;93.90;;;;;;4937538;28;20098;-70
2022/07/22 04:28:24;;;;;;;13.52;11.95;;;20.50;93.80;;;;;;4944115;28;20650;-69
2022/07/22 04:30:50;;;;;;;14.27;11.82;;;20.50;93.80;;;;;;4944434;28;20050;-70
2022/07/22 04:33:15;;;;;;;16.05;12.10;;;20.50;93.90;;;;;;4942273;29;20869;-70
2022/07/22 04:35:43;;;;;;;13.60;10.52;;;20.60;93.90;;;;;;4940122;28;20665;-70
2022/07/22 04:38:18;;;;;;;13.02;11.02;;;20.60;93.80;;;;;;4940492;29;20027;-70
2022/07/22 04:41:07;;;;;;;22.08;11.82;;;20.70;93.70;;;;;;4941416;29;20039;-70
2022/07/22 04:43:34;;;;;;;19.02;12.82;;;20.80;93.80;;;;;;4939321;29;20050;-69
2022/07/22 04:46:00;;;;;;;14.18;12.68;;;20.80;93.70;;;;;;4956157;28;20181;-70
2022/07/22 04:48:31;;;;;;;16.42;12.57;;;20.90;93.80;;;;;;4941444;29;20027;-70
2022/07/22 04:51:01;;;;;;;17.08;12.02;;;20.90;93.40;;;;;;4942432;28;20038;-70
2022/07/22 04:53:29;;;;;;;15.02;12.95;;;20.90;93.30;;;;;;4939840;29;20086;-70
2022/07/22 04:55:55;;;;;;;13.43;11.25;;;21.00;93.20;;;;;;4942423;29;20560;-70
2022/07/22 04:58:20;;;;;;;12.93;11.23;;;21.00;93.10;;;;;;4938623;29;20032;-70
2022/07/22 05:00:47;;;;;;;17.23;12.18;;;21.00;93.10;;;;;;4952087;28;20027;-70
2022/07/22 05:03:13;;;;;;;12.95;11.02;;;21.10;93.20;;;;;;4933372;29;20062;-70
2022/07/22 05:05:41;;;;;;;14.07;11.75;;;21.10;93.10;;;;;;4943776;28;20030;-70
2022/07/22 05:08:07;;;;;;;12.82;10.98;;;21.10;92.80;;;;;;4942914;29;20586;-70
2022/07/22 05:10:33;;;;;;;15.00;11.30;;;21.20;93.00;;;;;;4941380;28;20031;-70
2022/07/22 05:12:59;;;;;;;15.63;11.68;;;21.20;93.00;;;;;;4940896;28;20086;-70
2022/07/22 05:15:26;;;;;;;18.58;13.23;;;21.20;92.90;;;;;;4938639;29;20038;-70
2022/07/22 05:17:52;;;;;;;15.23;12.95;;;21.30;92.70;;;;;;4938086;28;20023;-70
2022/07/22 05:20:22;;;;;;;12.70;10.52;;;21.30;92.40;;;;;;4935908;29;20028;-70
2022/07/22 05:22:48;;;;;;;14.82;11.32;;;21.30;92.30;;;;;;4936656;29;20580;-70
2022/07/22 05:25:19;;;;;;;16.95;12.77;;;21.30;92.40;;;;;;4941197;29;20027;-70
2022/07/22 05:27:53;;;;;;;12.88;11.48;;;21.40;92.30;;;;;;4941456;28;20049;-70
2022/07/22 05:30:23;;;;;;;13.13;11.20;;;21.40;92.20;;;;;;4942061;28;20918;-70
2022/07/22 05:32:49;;;;;;;14.63;11.52;;;21.50;92.00;;;;;;4939752;28;20364;-70
2022/07/22 05:35:21;;;;;;;11.90;9.68;;;21.50;91.80;;;;;;4936859;29;20032;-70
2022/07/22 05:37:47;;;;;;;16.75;13.02;;;21.50;92.00;;;;;;4942614;29;20023;-70
2022/07/22 05:40:13;;;;;;;11.23;9.82;;;21.50;91.80;;;;;;4940521;28;20541;-70
2022/07/22 05:42:39;;;;;;;10.82;9.68;;;21.60;91.60;;;;;;4942732;29;20134;-70
2022/07/22 05:45:05;;;;;;;13.02;10.40;;;21.60;91.70;;;;;;4941535;29;20210;-70
2022/07/22 05:47:31;;;;;;;14.00;11.93;;;21.60;91.80;;;;;;4943020;29;20027;-70
2022/07/22 05:49:57;;;;;;;13.60;11.30;;;21.60;91.70;;;;;;4941510;28;20039;-70
2022/07/22 05:52:22;;;;;;;13.00;11.50;;;21.60;91.30;;;;;;4936842;29;20146;-69
2022/07/22 05:54:49;;;;;;;12.85;11.30;;;21.70;91.30;;;;;;4952077;28;20035;-70
2022/07/22 05:57:15;;;;;;;16.13;11.30;;;21.70;91.20;;;;;;4934212;29;20031;-70
2022/07/22 05:59:41;;;;;;;13.98;10.88;;;21.70;91.30;;;;;;4951471;28;20034;-69
2022/07/22 06:02:08;;;;;;;13.35;10.60;;;21.70;91.10;;;;;;4941557;29;20030;-70
2022/07/22 06:04:46;;;;;;;12.80;11.50;;;21.70;91.10;;;;;;4941826;28;20853;-70
2022/07/22 06:07:14;;;;;;;12.65;11.10;;;21.70;91.20;;;;;;4940813;29;20393;-70
2022/07/22 06:09:41;;;;;;;12.18;10.60;;;21.70;90.90;;;;;;4939346;29;20787;-70
2022/07/22 06:12:11;;;;;;;13.05;11.15;;;21.70;90.70;;;;;;4940229;29;20694;-70
2022/07/22 06:14:37;;;;;;;14.52;12.10;;;21.80;91.10;;;;;;4933934;28;20032;-70
2022/07/22 06:17:03;;;;;;;15.10;12.35;;;21.80;91.40;;;;;;4934803;29;20540;-70
2022/07/22 06:19:29;;;;;;;11.82;10.48;;;21.90;90.90;;;;;;4940662;28;20031;-69
2022/07/22 06:21:56;;;;;;;11.73;10.05;;;22.00;90.90;;;;;;4937347;29;20058;-70
2022/07/22 06:24:22;;;;;;;12.23;9.95;;;22.10;90.90;;;;;;4940295;29;20472;-70
2022/07/22 06:26:48;;;;;;;12.48;10.07;;;22.10;90.60;;;;;;4935668;29;20035;-70
2022/07/22 06:29:15;;;;;;;12.20;10.98;;;22.20;90.60;;;;;;4937345;28;20039;-70
2022/07/22 06:31:41;;;;;;;12.45;10.77;;;22.30;90.70;;;;;;4940883;28;20035;-71
2022/07/22 06:34:07;;;;;;;14.18;10.75;;;22.40;90.00;;;;;;4935490;28;20043;-70
2022/07/22 06:36:53;;;;;;;9.98;8.98;;;22.50;89.00;;;;;;4937111;29;20138;-70
2022/07/22 06:39:19;;;;;;;14.00;10.02;;;22.60;88.20;;;;;;4942992;28;20145;-70
2022/07/22 06:41:56;;;;;;;10.18;9.13;;;22.70;87.90;;;;;;4941102;28;20035;-70
2022/07/22 06:44:41;;;;;;;10.93;8.18;;;22.80;86.80;;;;;;4937884;29;20089;-70
2022/07/22 06:47:22;;;;;;;9.93;8.90;;;22.90;87.10;;;;;;4941516;29;20032;-70
2022/07/22 06:49:49;;;;;;;12.27;7.78;;;22.90;87.30;;;;;;4942817;28;20058;-70
2022/07/22 06:52:15;;;;;;;8.63;7.72;;;23.00;86.30;;;;;;4939907;29;20832;-70
2022/07/22 06:54:41;;;;;;;9.05;7.68;;;23.10;86.40;;;;;;4942665;29;20039;-70
2022/07/22 06:57:07;;;;;;;10.80;7.93;;;23.10;86.40;;;;;;4942959;29;20063;-70
2022/07/22 06:59:34;;;;;;;8.93;7.43;;;23.20;86.00;;;;;;4942197;28;20023;-70
2022/07/22 07:02:06;;;;;;;9.57;7.70;;;23.30;85.60;;;;;;4939080;29;20035;-70
2022/07/22 07:04:32;;;;;;;9.77;8.75;;;23.40;83.90;;;;;;4940223;29;20086;-70
2022/07/22 07:06:57;;;;;;;9.07;7.90;;;23.50;83.20;;;;;;4937395;29;20062;-70
2022/07/22 07:09:32;;;;;;;8.48;7.57;;;23.50;83.30;;;;;;4941239;28;20027;-70
2022/07/22 07:12:08;;;;;;;7.95;7.20;;;23.50;83.10;;;;;;4937338;29;20044;-70
2022/07/22 07:14:53;;;;;;;9.70;6.95;;;23.50;82.40;;;;;;4937328;29;20041;-71
2022/07/22 07:17:19;;;;;;;11.23;8.30;;;23.60;82.30;;;;;;4942074;29;20035;-70
2022/07/22 07:19:45;;;;;;;8.20;7.25;;;23.60;82.50;;;;;;4941521;28;20811;-69
2022/07/22 07:22:11;;;;;;;8.63;6.63;;;23.60;82.00;;;;;;4941281;28;20039;-70
2022/07/22 07:24:37;;;;;;;7.30;6.60;;;23.70;82.60;;;;;;4939725;29;20121;-70
2022/07/22 07:27:03;;;;;;;5.80;5.20;;;23.80;81.90;;;;;;4937794;29;20490;-70
2022/07/22 07:29:29;;;;;;;8.75;6.82;;;23.90;82.10;;;;;;4936937;28;20478;-70
2022/07/22 07:31:55;;;;;;;6.13;5.53;;;23.90;80.70;;;;;;4940667;28;20400;-70
2022/07/22 07:34:21;;;;;;;8.73;5.65;;;24.00;80.80;;;;;;4934703;29;20054;-68
2022/07/22 07:36:47;;;;;;;6.88;6.18;;;24.10;80.90;;;;;;4960318;28;20566;-68
2022/07/22 07:39:14;;;;;;;7.63;6.32;;;24.20;79.40;;;;;;4941156;28;20105;-67
2022/07/22 07:41:40;;;;;;;7.88;6.78;;;24.20;79.10;;;;;;4955712;28;20550;-68
2022/07/22 07:44:08;;;;;;;6.50;5.50;;;24.30;78.30;;;;;;4942338;29;20030;-68
2022/07/22 07:46:34;;;;;;;6.07;5.53;;;24.30;78.10;;;;;;4937746;28;20027;-68
2022/07/22 07:49:00;;;;;;;7.63;6.32;;;24.40;78.90;;;;;;4935186;29;20865;-67
2022/07/22 07:51:26;;;;;;;6.30;5.70;;;24.50;77.60;;;;;;4934791;29;20899;-68
2022/07/22 07:53:53;;;;;;;8.48;5.43;;;24.50;76.90;;;;;;4938263;29;20042;-68
2022/07/22 07:56:19;;;;;;;6.43;4.88;;;24.50;77.50;;;;;;4940527;29;20035;-68
2022/07/22 07:58:44;;;;;;;4.80;4.40;;;24.60;77.60;;;;;;4940286;28;20949;-68
2022/07/22 08:01:10;;;;;;;5.38;4.88;;;24.70;77.60;;;;;;4940352;29;20038;-68
2022/07/22 08:03:36;;;;;;;5.35;4.90;;;24.80;76.90;;;;;;4937856;29;20101;-68
2022/07/22 08:06:02;;;;;;;5.20;4.63;;;24.90;76.70;;;;;;4934740;29;20784;-68
2022/07/22 08:08:29;;;;;;;5.90;4.80;;;25.00;75.90;;;;;;4935758;29;20078;-68
2022/07/22 08:10:57;;;;;;;5.05;4.57;;;25.10;76.40;;;;;;4939146;28;20054;-68
2022/07/22 08:13:46;;;;;;;6.28;4.60;;;25.10;76.10;;;;;;4916330;28;20062;-68
2022/07/22 08:16:30;;;;;;;5.78;4.70;;;25.20;75.40;;;;;;4937731;29;20182;-67
2022/07/22 08:18:56;;;;;;;4.53;4.13;;;25.20;74.60;;;;;;4941140;28;20059;-68
2022/07/22 08:21:22;;;;;;;5.75;4.53;;;25.20;74.40;;;;;;4940528;29;20499;-68
2022/07/22 08:23:54;;;;;;;5.22;4.72;;;25.10;72.70;;;;;;4935594;29;20777;-68
2022/07/22 08:26:20;;;;;;;7.35;4.30;;;25.20;73.80;;;;;;4934131;29;20500;-68
2022/07/22 08:28:46;;;;;;;6.75;4.03;;;25.10;73.80;;;;;;4934799;28;20037;-68
2022/07/22 08:31:12;;;;;;;4.50;4.10;;;25.30;74.20;;;;;;4935043;28;20435;-68
2022/07/22 08:33:38;;;;;;;4.68;3.47;;;25.30;74.30;;;;;;4941297;28;20035;-68
2022/07/22 08:36:04;;;;;;;4.35;3.92;;;25.30;74.00;;;;;;4939237;29;20038;-68
2022/07/22 08:38:31;;;;;;;5.72;3.90;;;25.30;73.60;;;;;;4940782;29;20897;-67
2022/07/22 08:40:58;;;;;;;4.15;3.75;;;25.30;73.00;;;;;;4940647;28;20036;-68
2022/07/22 08:43:25;;;;;;;4.78;4.13;;;25.30;73.60;;;;;;4940675;29;20039;-68
2022/07/22 08:45:51;;;;;;;4.35;3.97;;;25.20;73.70;;;;;;4934835;29;20027;-68
2022/07/22 08:48:17;;;;;;;4.18;3.70;;;25.10;73.90;;;;;;4932867;29;20122;-67
2022/07/22 08:51:01;;;;;;;3.53;3.22;;;25.00;74.40;;;;;;4938551;29;21063;-68
2022/07/22 08:53:34;;;;;;;3.00;2.80;;;24.90;75.20;;;;;;4939226;29;20055;-68
2022/07/22 08:56:06;;;;;;;3.83;3.42;;;24.70;76.00;;;;;;4938417;29;20381;-68
2022/07/22 08:58:32;;;;;;;3.67;3.38;;;24.50;76.00;;;;;;4938087;29;20034;-67
2022/07/22 09:01:13;;;;;;;3.60;3.30;;;24.40;77.10;;;;;;4940050;28;20118;-67
2022/07/22 09:03:55;;;;;;;3.63;3.33;;;24.30;78.10;;;;;;4941608;29;20035;-68
2022/07/22 09:06:25;;;;;;;4.03;3.70;;;24.30;78.60;;;;;;4941947;28;20035;-68
2022/07/22 09:08:57;;;;;;;5.82;3.85;;;24.30;78.10;;;;;;4943489;28;20059;-68
2022/07/22 09:11:42;;;;;;;3.40;3.10;;;24.40;78.50;;;;;;4943129;28;20039;-68
2022/07/22 09:14:25;;;;;;;4.45;3.35;;;24.50;77.80;;;;;;4943216;29;20027;-68
2022/07/22 09:17:24;;;;;;;3.85;3.55;;;24.70;78.00;;;;;;4938703;29;20178;-68
2022/07/22 09:20:18;;;;;;;3.50;3.20;;;24.80;76.50;;;;;;4940471;28;20078;-68
2022/07/22 09:23:21;;;;;;;4.78;3.88;;;25.00;76.70;;;;;;4938422;29;20075;-68
2022/07/22 09:25:48;;;;;;;4.03;3.58;;;25.10;76.60;;;;;;4936916;29;20118;-68
2022/07/22 09:28:33;;;;;;;3.83;3.45;;;25.20;76.30;;;;;;4941696;29;20054;-68
2022/07/22 09:31:39;;;;;;;;;;;25.40;76.20;;;;;;4944041;28;20846;-68
2022/07/22 09:34:34;;;;;;;3.35;3.13;;;25.40;75.40;;;;;;4941204;28;19954;-68
2022/07/22 09:37:11;;;;;;;3.85;3.55;;;25.50;74.40;;;;;;4938233;29;20031;-68
2022/07/22 09:39:37;;;;;;;4.03;3.53;;;25.60;73.80;;;;;;4939418;28;20563;-68
2022/07/22 09:42:07;;;;;;;4.70;3.40;;;25.70;73.20;;;;;;4937317;29;20567;-68
2022/07/22 09:44:34;;;;;;;4.38;3.20;;;25.70;73.00;;;;;;4941841;29;20034;-68
2022/07/22 09:47:27;;;;;;;3.50;3.20;;;25.70;72.80;;;;;;4938027;29;20043;-68
2022/07/22 09:50:31;;;;;;;4.20;3.80;;;25.60;72.80;;;;;;4942177;28;20035;-66
2022/07/22 09:53:17;;;;;;;3.13;2.92;;;25.70;73.70;;;;;;4944283;29;20122;-68
2022/07/22 09:55:55;;;;;;;4.10;3.30;;;25.70;73.00;;;;;;4940039;29;20528;-68
2022/07/22 09:58:21;;;;;;;4.57;3.13;;;25.70;73.60;;;;;;4937600;29;20415;-68
2022/07/22 10:00:49;;;;;;;3.42;3.13;;;25.90;73.80;;;;;;4941980;28;20035;-68
2022/07/22 10:03:37;;;;;;;4.03;3.30;;;26.00;73.00;;;;;;4941676;29;20586;-68
2022/07/22 10:06:05;;;;;;;3.90;3.50;;;26.10;72.10;;;;;;4936660;29;20039;-67
2022/07/22 10:08:32;;;;;;;3.70;3.40;;;26.10;71.90;;;;;;4939817;29;20034;-68
2022/07/22 10:11:04;;;;;;;5.68;3.47;;;26.00;72.10;;;;;;4942679;28;20078;-68
2022/07/22 10:13:31;;;;;;;7.30;3.30;;;26.00;72.30;;;;;;4940551;29;20034;-68
2022/07/22 10:15:58;;;;;;;3.83;3.53;;;26.00;73.10;;;;;;4937222;29;20027;-68
2022/07/22 10:18:25;;;;;;;4.03;3.63;;;25.90;72.50;;;;;;4937467;28;20080;-68
2022/07/22 10:21:07;;;;;;;4.28;3.88;;;25.90;72.30;;;;;;4937502;28;20027;-68
2022/07/22 10:23:33;;;;;;;4.03;3.40;;;25.80;72.00;;;;;;4934030;28;20046;-68
2022/07/22 10:26:01;;;;;;;3.50;3.20;;;25.80;72.50;;;;;;4945332;28;20035;-68
2022/07/22 10:28:35;;;;;;;2.90;2.70;;;25.80;73.20;;;;;;4958243;28;20031;-68
2022/07/22 10:31:18;;;;;;;3.00;2.80;;;25.70;71.80;;;;;;4942029;28;20043;-68
2022/07/22 10:33:47;;;;;;;3.85;2.85;;;25.70;71.30;;;;;;4939198;29;20890;-68
2022/07/22 10:36:13;;;;;;;2.97;2.78;;;25.80;71.70;;;;;;4938252;28;20043;-68
2022/07/22 10:39:07;;;;;;;3.28;2.65;;;25.90;71.80;;;;;;4937213;28;20031;-68
2022/07/22 10:41:36;;;;;;;2.75;2.50;;;25.90;71.70;;;;;;4937883;29;20488;-68
2022/07/22 10:44:02;;;;;;;4.03;2.22;;;25.80;71.00;;;;;;4941441;29;20042;-68
2022/07/22 10:46:51;;;;;;;3.15;2.33;;;25.60;71.60;;;;;;4943709;29;20047;-68
2022/07/22 10:49:19;;;;;;;3.30;3.00;;;25.60;72.50;;;;;;4941390;28;20530;-68
2022/07/22 10:52:16;;;;;;;3.20;2.88;;;25.60;72.20;;;;;;4941126;28;20042;-68
2022/07/22 10:55:19;;;;;;;2.72;2.53;;;25.70;71.30;;;;;;4936604;28;20076;-68
2022/07/22 10:57:45;;;;;;;2.55;2.35;;;25.80;71.30;;;;;;4938261;29;20035;-68
2022/07/22 11:00:11;;;;;;;2.80;2.60;;;25.80;70.80;;;;;;4934517;29;20035;-67
2022/07/22 11:02:38;;;;;;;2.95;2.72;;;26.00;71.70;;;;;;4940294;28;20551;-68
2022/07/22 11:05:04;;;;;;;2.85;2.65;;;26.00;70.80;;;;;;4942948;29;20460;-68
2022/07/22 11:07:31;;;;;;;2.92;2.72;;;26.10;69.70;;;;;;4942515;29;20047;-68
2022/07/22 11:10:14;;;;;;;3.08;2.67;;;26.20;71.00;;;;;;4940384;28;20503;-68
2022/07/22 11:12:40;;;;;;;5.40;2.70;;;26.10;69.90;;;;;;4939362;29;20090;-67
2022/07/22 11:15:07;;;;;;;2.50;2.30;;;26.20;69.80;;;;;;4936304;29;20028;-68
2022/07/22 11:17:34;;;;;;;2.60;2.40;;;26.30;69.80;;;;;;4938305;28;20562;-68
2022/07/22 11:20:05;;;;;;;2.22;2.03;;;26.40;69.20;;;;;;4933738;29;20423;-68
2022/07/22 11:22:30;;;;;;;5.65;2.30;;;26.40;69.10;;;;;;4939660;29;20130;-68
2022/07/22 11:24:57;;;;;;;3.42;2.30;;;26.50;68.40;;;;;;4942948;28;20173;-68
2022/07/22 11:27:23;;;;;;;2.40;2.20;;;26.60;68.50;;;;;;4940882;29;20043;-67
2022/07/22 11:29:52;;;;;;;2.72;1.92;;;26.70;68.30;;;;;;4940436;28;20031;-68
2022/07/22 11:32:20;;;;;;;1.80;1.70;;;26.80;67.80;;;;;;4937531;28;20039;-68
2022/07/22 11:34:47;;;;;;;1.98;1.88;;;26.90;66.60;;;;;;4937944;28;20064;-68
2022/07/22 11:37:14;;;;;;;1.77;1.60;;;26.90;66.50;;;;;;4934872;29;20032;-67
2022/07/22 11:39:40;;;;;;;1.70;1.60;;;27.00;66.00;;;;;;4940418;28;20034;-68
2022/07/22 11:42:07;;;;;;;1.65;1.50;;;26.90;64.60;;;;;;4941769;28;20042;-68
2022/07/22 11:44:35;;;;;;;1.30;1.20;;;26.90;65.50;;;;;;4942129;28;20484;-67
2022/07/22 11:47:03;;;;;;;1.95;1.60;;;27.00;65.20;;;;;;4939929;28;20401;-68
2022/07/22 11:49:33;;;;;;;1.48;1.38;;;27.00;63.80;;;;;;4939628;28;20194;-68
2022/07/22 11:51:59;;;;;;;1.80;1.40;;;27.00;64.90;;;;;;4937985;28;20042;-68
2022/07/22 11:54:25;;;;;;;1.48;1.38;;;27.00;65.00;;;;;;4936647;29;20040;-67
2022/07/22 11:56:51;;;;;;;4.22;1.27;;;27.00;64.10;;;;;;4934795;28;20046;-68
2022/07/22 11:59:17;;;;;;;2.25;1.45;;;27.00;64.00;;;;;;4937223;28;20105;-68
2022/07/22 12:01:44;;;;;;;2.00;1.27;;;27.00;64.60;;;;;;4941811;28;20023;-68
2022/07/22 12:04:13;;;;;;;1.40;1.30;;;27.00;64.60;;;;;;4940349;29;20039;-68
2022/07/22 12:06:42;;;;;;;2.22;1.50;;;27.20;64.20;;;;;;4943135;29;20045;-68
2022/07/22 12:09:12;;;;;;;2.58;1.50;;;27.30;64.60;;;;;;4941082;28;20047;-68
2022/07/22 12:11:45;;;;;;;1.63;1.30;;;27.30;64.20;;;;;;4939912;29;20049;-68
2022/07/22 12:14:13;;;;;;;2.03;1.23;;;27.30;64.30;;;;;;4934231;29;20082;-68
2022/07/22 12:16:40;;;;;;;1.38;1.27;;;27.20;64.50;;;;;;4936167;28;20019;-68
2022/07/22 12:19:13;;;;;;;1.33;1.23;;;27.10;64.90;;;;;;4942168;28;20042;-68
2022/07/22 12:21:58;;;;;;;1.48;1.38;;;27.00;64.80;;;;;;4941095;28;20027;-68
2022/07/22 12:24:29;;;;;;;2.90;1.20;;;27.00;65.70;;;;;;4939297;29;20043;-68
2022/07/22 12:26:57;;;;;;;1.50;1.40;;;26.90;64.60;;;;;;4938345;29;20054;-68
2022/07/22 12:29:37;;;;;;;2.55;1.52;;;26.90;66.60;;;;;;4937064;28;20059;-68
2022/07/22 12:32:04;;;;;;;1.30;1.20;;;26.80;65.40;;;;;;4933823;28;20036;-68
2022/07/22 12:34:30;;;;;;;1.48;1.38;;;26.80;64.90;;;;;;4936700;29;20039;-68
2022/07/22 12:36:55;;;;;;;1.75;1.33;;;26.70;65.70;;;;;;4939431;28;20432;-68
2022/07/22 12:39:21;;;;;;;1.30;1.20;;;26.70;65.80;;;;;;4941146;28;20036;-68
2022/07/22 12:41:53;;;;;;;3.78;1.42;;;26.80;66.70;;;;;;4942371;28;20031;-67
2022/07/22 12:44:25;;;;;;;1.30;1.30;;;26.90;66.30;;;;;;4941828;29;20074;-68
2022/07/22 12:46:55;;;;;;;1.42;1.33;;;26.90;65.40;;;;;;4937768;29;20039;-68
2022/07/22 12:49:24;;;;;;;1.25;1.20;;;27.00;64.20;;;;;;4941257;29;20299;-68
2022/07/22 12:52:13;;;;;;;1.70;1.60;;;27.00;63.70;;;;;;4938370;28;20483;-68
2022/07/22 12:54:40;;;;;;;1.60;1.50;;;26.90;64.10;;;;;;4937606;29;20065;-68